Flight Track Log - Related Links

Times and Time Zones

All times are in EST time to prevent confusion due to time zone crossing. See the THY1073 flight status page for this flight to view local times or setup timezone preferences in your user account.

Time Position Orientation Groundspeed Altitude Reporting Facility
EST Latitude Longitude Course Direction KTS MPH feet Rate Location/Type
Wed 12:53:00 AM 41.0682 27.7230 277° West  Level Estimated
Wed 12:54:00 AM 41.0777 27.6008 276° West  Level Estimated
Wed 12:55:00 AM 41.0871 27.4786 276° West  Level Estimated
Wed 12:56:00 AM 41.0964 27.3563 276° West  Level Estimated
Wed 12:57:00 AM 41.1055 27.2341 276° West  Level Estimated
Wed 12:58:00 AM 41.1145 27.1117 276° West  Level Estimated
Wed 12:59:00 AM 41.1233 26.9894 276° West  Level Estimated
Wed 01:00:00 AM 41.1320 26.8670 275° West  Level Estimated
Wed 01:01:00 AM 41.1407 26.7445 275° West  Level Estimated
Wed 01:02:00 AM 41.1491 26.6221 275° West  Level Estimated
Wed 01:03:00 AM 41.1575 26.4996 275° West  Level Estimated
Wed 01:04:00 AM 41.1657 26.3771 275° West  Level Estimated
Wed 01:05:00 AM 41.1738 26.2545 275° West  Level Estimated
Wed 01:06:00 AM 41.1817 26.1319 275° West  Level Estimated
Wed 01:07:00 AM 41.1895 26.0093 275° West  Level Estimated
Wed 01:08:00 AM 41.1972 25.8867 275° West  Level Estimated
Wed 01:09:00 AM 41.2048 25.7640 275° West  Level Estimated
Wed 01:10:00 AM 41.2122 25.6413 275° West  Level Estimated
Wed 01:11:00 AM 41.2195 25.5186 275° West  Level Estimated
Wed 01:12:00 AM 41.2267 25.3958 274° West  Level Estimated
Wed 01:13:00 AM 41.2337 25.2731 274° West  Level Estimated
Wed 01:14:00 AM 41.2406 25.1502 274° West  Level Estimated
Wed 01:15:00 AM 41.2474 25.0274 274° West  Level Estimated
Wed 01:16:00 AM 41.2541 24.9046 274° West  Level Estimated
Wed 01:17:00 AM 41.2606 24.7817 274° West  Level Estimated
Wed 01:18:00 AM 41.2669 24.6588 274° West  Level Estimated
Wed 01:19:00 AM 41.2732 24.5358 274° West  Level Estimated
Wed 01:20:00 AM 41.2793 24.4129 274° West  Level Estimated
Wed 01:21:00 AM 41.2853 24.2899 274° West  Level Estimated
Wed 01:22:00 AM 41.2912 24.1669 274° West  Level Estimated
Wed 01:23:00 AM 41.2969 24.0439 274° West  Level Estimated
Wed 01:24:00 AM 41.3025 23.9208 274° West  Level Estimated
Wed 01:25:00 AM 41.3080 23.7978 273° West  Level Estimated
Wed 01:26:00 AM 41.3133 23.6747 273° West  Level Estimated
Wed 01:27:00 AM 41.3185 23.5516 273° West  Level Estimated
Wed 01:28:00 AM 41.3236 23.4285 273° West  Level Estimated
Wed 01:29:00 AM 41.3285 23.3053 273° West  Level Estimated
Wed 01:30:00 AM 41.3334 23.1822 273° West  Level Estimated
Wed 01:31:00 AM 41.3380 23.0590 273° West  Level Estimated
Wed 01:32:00 AM 41.3426 22.9358 273° West  Level Estimated
Wed 01:33:00 AM 41.3470 22.8126 273° West  Level Estimated
Wed 01:34:00 AM 41.3513 22.6894 273° West  Level Estimated
Wed 01:35:00 AM 41.3554 22.5661 273° West  Level Estimated
Wed 01:36:00 AM 41.3595 22.4429 273° West  Level Estimated
Wed 01:37:00 AM 41.3634 22.3196 272° West  Level Estimated
Wed 01:38:00 AM 41.3671 22.1963 272° West  Level Estimated
Wed 01:39:00 AM 41.3708 22.0730 272° West  Level Estimated
Wed 01:40:00 AM 41.3742 21.9497 272° West  Level Estimated
Wed 01:41:00 AM 41.3776 21.8263 272° West  Level Estimated
Wed 01:42:00 AM 41.3809 21.7030 272° West  Level Estimated
Wed 01:43:00 AM 41.3839 21.5796 272° West  Level Estimated
Wed 01:44:00 AM 41.3869 21.4563 272° West  Level Estimated
Wed 01:45:00 AM 41.3898 21.3329 272° West  Level Estimated
Wed 01:46:00 AM 41.3925 21.2095 272° West  Level Estimated
Wed 01:47:00 AM 41.3951 21.0861 272° West  Level Estimated
Wed 01:48:00 AM 41.3975 20.9627 272° West  Level Estimated
Wed 01:49:00 AM 41.3998 20.8393 271° West  Level Estimated
Wed 01:50:00 AM 41.4020 20.7158 271° West  Level Estimated
Wed 01:51:00 AM 41.4040 20.5924 271° West  Level Estimated
Wed 01:52:00 AM 41.4059 20.4690 271° West  Level Estimated
Wed 01:53:00 AM 41.4077 20.3455 271° West  Level Estimated
Wed 01:54:00 AM 41.4094 20.2221 271° West  Level Estimated
Wed 01:55:00 AM 41.4109 20.0986 271° West  Level Estimated
Wed 01:56:00 AM 41.4123 19.9751 271° West  Level Estimated
Wed 01:57:00 AM 41.4136 19.8517 271° West  Level Estimated
Wed 01:58:00 AM 41.4147 19.7282 271° West  Level Estimated
Wed 01:59:00 AM 41.4147 19.7206 271° West  Level Estimated
Wed 02:00:00 AM 41.4147 19.7206 21° North  Level Estimated
Wed 02:01:00 AM 41.4147 19.7206 21° North  Level Estimated
Wed 02:02:00 AM 41.4147 19.7206 21° North  Level Estimated
Wed 02:03:00 AM 41.4147 19.7206 21° North  Level Estimated
Wed 02:04:00 AM 41.4147 19.7206 21° North  Level Estimated
Wed 02:05:00 AM 41.4147 19.7206 21° North  Level Estimated
Wed 02:06:00 AM 41.4147 19.7206 21° North  Level Estimated
Wed 02:07:00 AM 41.4147 19.7206 21° North  Level Estimated
Wed 02:08:00 AM 41.4147 19.7206 21° North  Level Estimated
Wed 02:09:00 AM 41.4147 19.7206 21° North  Level Estimated
Wed 02:10:00 AM 41.4147 19.7206 21° North  Level Estimated
Wed 02:11:00 AM 41.4147 19.7206 21° North  Level Estimated
Wed 02:12:00 AM 41.4147 19.7206 21° North  Level Estimated
Wed 02:13:00 AM 41.4147 19.7206 21° North  Level Estimated

Login

Don't have an account? Register now (free) for customized features, flight alerts, and more!